LFMN Airport Information

Runway Information
Runway 04R Length 9721 ft width 148 ft
Elevation 10 ft Threshold ft Heading 45
Runway 22L Length 9721 ft Width 148 ft
Elevation 12 ft Threshold ft Heading 225
Runway 04L Length 8622 ft width 148 ft
Elevation 11 ft Threshold ft Heading 45
Runway 22R Length 8622 ft Width 148 ft
Elevation 10 ft Threshold 575 ft Heading 225
Airport Frequencies
Type A/D Name NICE APP Frequency 124.175 MHZ
Type ATIS Name NICE ATIS Frequency 129.6 MHZ
Type GND Name NICE GND Frequency 121.775 MHZ
Type TWR Name NICE TWR Frequency 118.7 MHZ
Airport Navaids
Type VOR-DME Name Nice Cote D Azur Frequency 109650 KHZ
Type VOR-DME Name Cagnes Sur Mer Frequency 109200 KHZ
Type NDB Name Nice Frequency 399 KHZ
Type VOR-DME Name Nice Frequency 112400 KHZ
Airport Weather Information & NOTAM
ADDS - METARS form results

(0322 UTC 13 September 2022)
Data provider http://aviationweather.gov/metar/data/
 
METAR text: LFMN 130300Z 32011KT CAVOK 21/15 Q1014 NOSIG
Conditions at: LFMN (NICE/COTE D'AZUR, FR) observed 0300 UTC 13 September 2022
Temperature: 21.0°C (70°F)
Dewpoint: 15.0°C (59°F) [RH = 69%]
Pressure (altimeter): 29.94 inches Hg (1014.0 mb)
Winds: from the NW (320 degrees) at 13 MPH (11 knots; 5.7 m/s)
Visibility: 6 or more miles (10+ km)
Ceiling: ceiling and visibility are OK
Clouds: unknown
Weather: no significant weather observed at this time

METAR text: LFMN 130230Z 33010KT CAVOK 21/15 Q1014 NOSIG
Conditions at: LFMN (NICE/COTE D'AZUR, FR) observed 0230 UTC 13 September 2022
Temperature: 21.0°C (70°F)
Dewpoint: 15.0°C (59°F) [RH = 69%]
Pressure (altimeter): 29.94 inches Hg (1014.0 mb)
Winds: from the NNW (330 degrees) at 12 MPH (10 knots; 5.1 m/s)
Visibility: 6 or more miles (10+ km)
Ceiling: ceiling and visibility are OK
Clouds: unknown
Weather: no significant weather observed at this time

Forecast for: LFMN (NICE/COTE D'AZUR, FR)
Text: TAF LFMN 130200Z 1303/1409 33010KT CAVOK
Forecast period: 0300 UTC 13 September 2022 to 0900 UTC 14 September 2022
Forecast type: FROM: standard forecast or significant change
Winds: from the NNW (330 degrees) at 12 MPH (10 knots; 5.1 m/s)
Visibility: 6 or more miles (10+ km)
Ceiling: unknown
Clouds: missing
Weather: NSW  (no significant weather)
Text: TEMPO 1309/1320 13006KT
Forecast period: 0900 to 2000 UTC 13 September 2022
Forecast type: TEMPORARY: The following changes expected for less than half the time period
Winds: from the SE (130 degrees) at 7 MPH (6 knots; 3.1 m/s)
Visibility: missing
Ceiling: unknown
Clouds: missing
Weather: no significant weather forecast for this period
Text: PROB40
Forecast period: 2000 UTC 13 September 2022 to 0500 UTC 14 September 2022
Forecast type: TEMPORARY: The following changes expected for less than half the time period
Visibility: missing
Ceiling: 1100 feet AGL
Clouds: broken clouds at 1100 feet AGL
Weather: no significant weather forecast for this period